sensor_id;sensor_type;location;lat;lon;timestamp;pressure;altitude;pressure_sealevel;temperature;humidity
80401;BME280;69727;53.132;8.230;2023-06-14T00:01:50;101813.63;;;15.21;58.76
80401;BME280;69727;53.132;8.230;2023-06-14T00:04:15;101809.28;;;15.15;58.53
80401;BME280;69727;53.132;8.230;2023-06-14T00:06:46;101817.41;;;15.09;59.57
80401;BME280;69727;53.132;8.230;2023-06-14T00:09:12;101815.66;;;15.09;59.26
80401;BME280;69727;53.132;8.230;2023-06-14T00:11:39;101815.72;;;15.06;59.80
80401;BME280;69727;53.132;8.230;2023-06-14T00:14:05;101815.81;;;15.02;59.78
80401;BME280;69727;53.132;8.230;2023-06-14T00:16:31;101816.81;;;14.96;60.19
80401;BME280;69727;53.132;8.230;2023-06-14T00:18:58;101815.16;;;14.90;60.11
80401;BME280;69727;53.132;8.230;2023-06-14T00:21:23;101819.69;;;14.87;60.49
80401;BME280;69727;53.132;8.230;2023-06-14T00:23:53;101818.06;;;14.80;60.96
80401;BME280;69727;53.132;8.230;2023-06-14T00:26:19;101822.53;;;14.77;60.82
80401;BME280;69727;53.132;8.230;2023-06-14T00:28:44;101819.03;;;14.75;60.76
80401;BME280;69727;53.132;8.230;2023-06-14T00:31:12;101817.28;;;14.74;61.51
80401;BME280;69727;53.132;8.230;2023-06-14T00:33:37;101823.56;;;14.72;61.37
80401;BME280;69727;53.132;8.230;2023-06-14T00:36:05;101817.53;;;14.62;61.98
80401;BME280;69727;53.132;8.230;2023-06-14T00:38:31;101822.94;;;14.56;62.01
80401;BME280;69727;53.132;8.230;2023-06-14T00:40:56;101824.78;;;14.52;62.42
80401;BME280;69727;53.132;8.230;2023-06-14T00:43:22;101825.81;;;14.47;62.59
80401;BME280;69727;53.132;8.230;2023-06-14T00:45:47;101826.72;;;14.44;62.60
80401;BME280;69727;53.132;8.230;2023-06-14T00:48:15;101821.47;;;14.41;63.30
80401;BME280;69727;53.132;8.230;2023-06-14T00:50:40;101821.56;;;14.36;63.37
80401;BME280;69727;53.132;8.230;2023-06-14T00:53:07;101827.81;;;14.34;63.48
80401;BME280;69727;53.132;8.230;2023-06-14T00:55:32;101827.81;;;14.34;63.68
80401;BME280;69727;53.132;8.230;2023-06-14T00:57:58;101826.09;;;14.31;63.49
80401;BME280;69727;53.132;8.230;2023-06-14T01:00:24;101816.44;;;14.26;63.87
80401;BME280;69727;53.132;8.230;2023-06-14T01:02:49;101824.50;;;14.21;64.39
80401;BME280;69727;53.132;8.230;2023-06-14T01:05:16;101826.25;;;14.22;64.12
80401;BME280;69727;53.132;8.230;2023-06-14T01:13:21;101836.22;;;14.11;65.01
80401;BME280;69727;53.132;8.230;2023-06-14T01:15:49;101827.41;;;14.07;65.45
80401;BME280;69727;53.132;8.230;2023-06-14T01:18:16;101831.91;;;14.03;65.46
80401;BME280;69727;53.132;8.230;2023-06-14T01:20:46;101833.84;;;13.95;65.89
80401;BME280;69727;53.132;8.230;2023-06-14T01:23:18;101838.28;;;13.93;66.08
80401;BME280;69727;53.132;8.230;2023-06-14T01:25:44;101834.78;;;13.91;66.45
80401;BME280;69727;53.132;8.230;2023-06-14T01:28:11;101836.59;;;13.89;66.65
80401;BME280;69727;53.132;8.230;2023-06-14T01:30:39;101828.66;;;13.87;66.85
80401;BME280;69727;53.132;8.230;2023-06-14T01:33:08;101830.44;;;13.84;66.98
80401;BME280;69727;53.132;8.230;2023-06-14T01:35:34;101828.75;;;13.81;67.08
80401;BME280;69727;53.132;8.230;2023-06-14T01:38:00;101836.72;;;13.81;67.14
80401;BME280;69727;53.132;8.230;2023-06-14T01:40:26;101840.25;;;13.82;67.39
80401;BME280;69727;53.132;8.230;2023-06-14T01:42:51;101842.09;;;13.78;67.75
80401;BME280;69727;53.132;8.230;2023-06-14T01:45:18;101839.47;;;13.75;67.86
80401;BME280;69727;53.132;8.230;2023-06-14T01:47:44;101836.91;;;13.70;67.66
80401;BME280;69727;53.132;8.230;2023-06-14T01:50:10;101844.84;;;13.72;68.00
80401;BME280;69727;53.132;8.230;2023-06-14T01:52:37;101844.88;;;13.70;68.06
80401;BME280;69727;53.132;8.230;2023-06-14T01:55:04;101841.41;;;13.67;68.60
80401;BME280;69727;53.132;8.230;2023-06-14T01:57:30;101845.78;;;13.68;68.35
80401;BME280;69727;53.132;8.230;2023-06-14T01:59:55;101852.03;;;13.67;68.51
80401;BME280;69727;53.132;8.230;2023-06-14T02:02:21;101848.50;;;13.63;68.51
80401;BME280;69727;53.132;8.230;2023-06-14T02:04:46;101855.66;;;13.61;68.76
80401;BME280;69727;53.132;8.230;2023-06-14T02:07:13;101843.28;;;13.57;68.96
80401;BME280;69727;53.132;8.230;2023-06-14T02:09:39;101842.44;;;13.57;68.88
80401;BME280;69727;53.132;8.230;2023-06-14T02:12:05;101843.34;;;13.54;69.09
80401;BME280;69727;53.132;8.230;2023-06-14T02:14:32;101848.59;;;13.57;69.05
80401;BME280;69727;53.132;8.230;2023-06-14T02:16:58;101844.25;;;13.55;69.35
80401;BME280;69727;53.132;8.230;2023-06-14T02:19:26;101851.34;;;13.52;69.39
80401;BME280;69727;53.132;8.230;2023-06-14T02:21:52;101855.78;;;13.52;69.28
80401;BME280;69727;53.132;8.230;2023-06-14T02:24:17;101854.06;;;13.49;69.45
80401;BME280;69727;53.132;8.230;2023-06-14T02:26:42;101856.72;;;13.49;69.28
80401;BME280;69727;53.132;8.230;2023-06-14T02:29:08;101855.00;;;13.45;69.76
80401;BME280;69727;53.132;8.230;2023-06-14T02:31:38;101853.28;;;13.41;69.48
80401;BME280;69727;53.132;8.230;2023-06-14T02:34:04;101860.41;;;13.39;69.95
80401;BME280;69727;53.132;8.230;2023-06-14T02:36:29;101862.16;;;13.40;70.04
80401;BME280;69727;53.132;8.230;2023-06-14T02:38:56;101861.28;;;13.40;70.09
80401;BME280;69727;53.132;8.230;2023-06-14T02:41:23;101859.56;;;13.37;70.05
80401;BME280;69727;53.132;8.230;2023-06-14T02:43:48;101857.75;;;13.39;69.96
80401;BME280;69727;53.132;8.230;2023-06-14T02:46:14;101856.03;;;13.35;69.99
80401;BME280;69727;53.132;8.230;2023-06-14T02:48:40;101857.81;;;13.34;70.32
80401;BME280;69727;53.132;8.230;2023-06-14T02:51:05;101853.38;;;13.33;70.30
80401;BME280;69727;53.132;8.230;2023-06-14T02:53:31;101857.84;;;13.30;70.48
80401;BME280;69727;53.132;8.230;2023-06-14T02:55:56;101868.47;;;13.30;70.35
80401;BME280;69727;53.132;8.230;2023-06-14T02:58:21;101869.41;;;13.26;70.51
80401;BME280;69727;53.132;8.230;2023-06-14T03:00:50;101868.59;;;13.21;70.74
80401;BME280;69727;53.132;8.230;2023-06-14T03:03:17;101870.41;;;13.19;70.74
80401;BME280;69727;53.132;8.230;2023-06-14T03:05:44;101881.03;;;13.19;70.99
80401;BME280;69727;53.132;8.230;2023-06-14T03:08:17;101877.56;;;13.13;71.18
80401;BME280;69727;53.132;8.230;2023-06-14T03:10:48;101881.09;;;13.14;71.06
80401;BME280;69727;53.132;8.230;2023-06-14T03:13:15;101889.91;;;13.14;71.15
80401;BME280;69727;53.132;8.230;2023-06-14T03:15:44;101896.16;;;13.13;71.32
80401;BME280;69727;53.132;8.230;2023-06-14T03:18:10;101888.22;;;13.12;71.50
80401;BME280;69727;53.132;8.230;2023-06-14T03:20:37;101895.31;;;13.08;71.66
80401;BME280;69727;53.132;8.230;2023-06-14T03:23:03;101902.38;;;13.09;71.82
80401;BME280;69727;53.132;8.230;2023-06-14T06:58:05;102017.00;;;20.50;47.54
80401;BME280;69727;53.132;8.230;2023-06-14T07:01:27;102015.91;;;20.55;47.79
80401;BME280;69727;53.132;8.230;2023-06-14T08:05:10;102016.81;;;24.49;35.91
80401;BME280;69727;53.132;8.230;2023-06-14T08:07:37;102013.66;;;23.95;37.53
80401;BME280;69727;53.132;8.230;2023-06-14T08:10:04;102009.22;;;23.44;38.24
80401;BME280;69727;53.132;8.230;2023-06-14T08:12:32;102008.09;;;23.15;37.47
80401;BME280;69727;53.132;8.230;2023-06-14T08:14:57;102014.63;;;22.76;39.35
80401;BME280;69727;53.132;8.230;2023-06-14T08:17:23;102016.75;;;22.69;39.46
80401;BME280;69727;53.132;8.230;2023-06-14T08:19:48;102020.44;;;22.68;39.97
80401;BME280;69727;53.132;8.230;2023-06-14T08:22:14;102018.59;;;22.68;39.37
80401;BME280;69727;53.132;8.230;2023-06-14T08:24:39;102018.03;;;22.79;38.98
80401;BME280;69727;53.132;8.230;2023-06-14T08:27:06;102018.75;;;22.83;38.90
80401;BME280;69727;53.132;8.230;2023-06-14T08:29:32;102014.38;;;22.80;38.04
80401;BME280;69727;53.132;8.230;2023-06-14T08:31:57;102019.94;;;22.77;38.14
80401;BME280;69727;53.132;8.230;2023-06-14T08:34:23;102016.44;;;22.58;38.47
80401;BME280;69727;53.132;8.230;2023-06-14T08:36:50;102013.38;;;22.65;38.54
80401;BME280;69727;53.132;8.230;2023-06-14T08:39:15;102008.91;;;22.82;38.42
80401;BME280;69727;53.132;8.230;2023-06-14T08:41:43;102018.88;;;22.97;37.22
80401;BME280;69727;53.132;8.230;2023-06-14T08:44:10;102011.78;;;22.96;36.14
80401;BME280;69727;53.132;8.230;2023-06-14T08:46:37;102013.75;;;22.93;36.79
80401;BME280;69727;53.132;8.230;2023-06-14T08:49:03;102017.72;;;22.85;36.40
80401;BME280;69727;53.132;8.230;2023-06-14T08:51:31;102019.78;;;22.98;36.75
80401;BME280;69727;53.132;8.230;2023-06-14T08:54:02;102024.28;;;22.97;36.34
80401;BME280;69727;53.132;8.230;2023-06-14T08:56:32;102010.09;;;22.94;35.98
80401;BME280;69727;53.132;8.230;2023-06-14T08:58:59;102016.84;;;23.02;35.58
80401;BME280;69727;53.132;8.230;2023-06-14T09:01:30;102016.28;;;22.96;35.32
80401;BME280;69727;53.132;8.230;2023-06-14T09:03:56;102019.06;;;22.94;35.24
80401;BME280;69727;53.132;8.230;2023-06-14T09:06:23;102024.53;;;22.93;35.34
80401;BME280;69727;53.132;8.230;2023-06-14T09:08:50;102026.44;;;23.08;35.40
80401;BME280;69727;53.132;8.230;2023-06-14T09:11:19;102020.31;;;23.22;35.10
80401;BME280;69727;53.132;8.230;2023-06-14T09:13:48;102020.28;;;23.39;35.10
80401;BME280;69727;53.132;8.230;2023-06-14T09:16:13;102019.00;;;23.47;34.01
80401;BME280;69727;53.132;8.230;2023-06-14T09:18:41;102017.25;;;23.46;34.24
80401;BME280;69727;53.132;8.230;2023-06-14T09:21:09;102025.16;;;23.49;34.75
80401;BME280;69727;53.132;8.230;2023-06-14T09:23:38;102028.47;;;23.54;34.74
80401;BME280;69727;53.132;8.230;2023-06-14T09:26:16;102029.22;;;23.57;35.27
80401;BME280;69727;53.132;8.230;2023-06-14T09:28:49;102032.16;;;23.53;34.68
80401;BME280;69727;53.132;8.230;2023-06-14T09:31:17;102023.97;;;23.54;35.73
80401;BME280;69727;53.132;8.230;2023-06-14T09:33:45;102037.31;;;23.73;34.80
80401;BME280;69727;53.132;8.230;2023-06-14T09:36:16;102024.81;;;23.88;34.35
80401;BME280;69727;53.132;8.230;2023-06-14T09:39:02;102030.00;;;23.75;35.04
80401;BME280;69727;53.132;8.230;2023-06-14T09:41:40;102031.75;;;23.77;34.59
80401;BME280;69727;53.132;8.230;2023-06-14T09:44:10;102023.00;;;23.71;34.40
80401;BME280;69727;53.132;8.230;2023-06-14T09:46:37;102027.03;;;23.80;34.87
80401;BME280;69727;53.132;8.230;2023-06-14T09:49:04;102025.00;;;24.01;33.98
80401;BME280;69727;53.132;8.230;2023-06-14T09:51:30;102020.19;;;24.22;33.98
80401;BME280;69727;53.132;8.230;2023-06-14T09:54:00;102021.72;;;24.42;33.57
80401;BME280;69727;53.132;8.230;2023-06-14T09:56:31;102024.09;;;24.33;32.88
80401;BME280;69727;53.132;8.230;2023-06-14T09:58:58;102029.31;;;24.36;33.41
80401;BME280;69727;53.132;8.230;2023-06-14T10:01:24;102018.75;;;24.47;33.00
80401;BME280;69727;53.132;8.230;2023-06-14T10:03:55;102029.56;;;24.47;33.78
80401;BME280;69727;53.132;8.230;2023-06-14T10:06:25;102029.38;;;24.66;32.90
80401;BME280;69727;53.132;8.230;2023-06-14T10:08:57;102026.81;;;24.93;33.10
80401;BME280;69727;53.132;8.230;2023-06-14T10:11:25;102025.41;;;25.16;32.25
80401;BME280;69727;53.132;8.230;2023-06-14T10:13:51;102018.97;;;25.33;32.63
80401;BME280;69727;53.132;8.230;2023-06-14T10:16:23;102012.19;;;25.41;32.39
80401;BME280;69727;53.132;8.230;2023-06-14T10:19:13;102009.75;;;25.65;32.56
80401;BME280;69727;53.132;8.230;2023-06-14T10:21:59;102007.59;;;25.99;31.74
80401;BME280;69727;53.132;8.230;2023-06-14T10:24:35;102016.09;;;25.93;30.67
80401;BME280;69727;53.132;8.230;2023-06-14T10:27:06;102006.78;;;25.97;31.56
80401;BME280;69727;53.132;8.230;2023-06-14T10:32:28;102010.94;;;26.57;29.91
80401;BME280;69727;53.132;8.230;2023-06-14T10:35:05;101996.94;;;26.63;29.92
80401;BME280;69727;53.132;8.230;2023-06-14T10:37:32;102010.78;;;26.98;29.78
80401;BME280;69727;53.132;8.230;2023-06-14T10:39:58;102018.81;;;26.87;29.61
80401;BME280;69727;53.132;8.230;2023-06-14T10:42:36;102015.38;;;26.58;29.75
80401;BME280;69727;53.132;8.230;2023-06-14T10:45:02;102005.63;;;26.28;29.80
80401;BME280;69727;53.132;8.230;2023-06-14T10:47:36;102011.97;;;26.41;29.79
80401;BME280;69727;53.132;8.230;2023-06-14T10:50:06;102007.06;;;26.34;29.58
80401;BME280;69727;53.132;8.230;2023-06-14T10:52:43;102007.59;;;26.26;29.91
80401;BME280;69727;53.132;8.230;2023-06-14T10:55:16;102003.84;;;26.41;30.16
80401;BME280;69727;53.132;8.230;2023-06-14T10:57:47;102000.19;;;26.55;29.85
80401;BME280;69727;53.132;8.230;2023-06-14T11:00:17;102001.00;;;26.83;30.09
80401;BME280;69727;53.132;8.230;2023-06-14T11:05:52;101997.00;;;27.02;29.85
80401;BME280;69727;53.132;8.230;2023-06-14T11:11:12;101986.69;;;27.45;28.97
80401;BME280;69727;53.132;8.230;2023-06-14T11:13:41;101990.91;;;27.24;28.49
80401;BME280;69727;53.132;8.230;2023-06-14T11:16:13;101997.00;;;26.89;28.47
80401;BME280;69727;53.132;8.230;2023-06-14T11:18:39;101979.41;;;27.07;29.06
80401;BME280;69727;53.132;8.230;2023-06-14T11:21:05;101973.66;;;26.73;29.34
80401;BME280;69727;53.132;8.230;2023-06-14T11:23:31;101976.94;;;27.04;28.71
80401;BME280;69727;53.132;8.230;2023-06-14T11:25:56;101973.66;;;26.86;28.45
80401;BME280;69727;53.132;8.230;2023-06-14T11:28:21;101967.78;;;27.05;29.21
80401;BME280;69727;53.132;8.230;2023-06-14T11:30:59;101953.53;;;27.53;28.62
80401;BME280;69727;53.132;8.230;2023-06-14T11:33:25;101954.41;;;27.41;27.37
80401;BME280;69727;53.132;8.230;2023-06-14T11:35:51;101941.94;;;27.12;28.60
80401;BME280;69727;53.132;8.230;2023-06-14T11:38:17;101946.16;;;27.42;27.88
80401;BME280;69727;53.132;8.230;2023-06-14T11:40:43;101946.38;;;27.26;27.80
80401;BME280;69727;53.132;8.230;2023-06-14T11:43:08;101937.97;;;27.55;27.49
80401;BME280;69727;53.132;8.230;2023-06-14T11:45:34;101943.91;;;27.73;27.08
80401;BME280;69727;53.132;8.230;2023-06-14T11:48:00;101946.22;;;27.54;27.52
80401;BME280;69727;53.132;8.230;2023-06-14T11:50:26;101952.56;;;27.41;28.15
80401;BME280;69727;53.132;8.230;2023-06-14T11:52:57;101949.22;;;27.75;26.98
80401;BME280;69727;53.132;8.230;2023-06-14T11:55:23;101947.97;;;28.16;27.00
80401;BME280;69727;53.132;8.230;2023-06-14T11:57:49;101939.25;;;28.59;26.10
80401;BME280;69727;53.132;8.230;2023-06-14T12:00:16;101957.19;;;28.73;26.62
80401;BME280;69727;53.132;8.230;2023-06-14T12:02:43;101926.66;;;28.92;26.49
80401;BME280;69727;53.132;8.230;2023-06-14T12:05:20;101954.03;;;29.47;25.08
80401;BME280;69727;53.132;8.230;2023-06-14T12:07:49;101937.88;;;29.89;24.78
80401;BME280;69727;53.132;8.230;2023-06-14T12:10:16;101931.59;;;30.31;23.80
80401;BME280;69727;53.132;8.230;2023-06-14T12:12:42;101932.19;;;30.13;23.21
80401;BME280;69727;53.132;8.230;2023-06-14T12:15:09;101930.66;;;30.21;23.64
80401;BME280;69727;53.132;8.230;2023-06-14T12:17:37;101930.03;;;29.73;23.28
80401;BME280;69727;53.132;8.230;2023-06-14T12:20:11;101938.06;;;29.20;24.58
80401;BME280;69727;53.132;8.230;2023-06-14T12:22:52;101952.72;;;28.36;25.37
80401;BME280;69727;53.132;8.230;2023-06-14T12:25:37;101921.13;;;28.47;26.32
80401;BME280;69727;53.132;8.230;2023-06-14T12:28:09;101933.13;;;28.55;24.94
80401;BME280;69727;53.132;8.230;2023-06-14T12:30:36;101942.66;;;28.50;24.78
80401;BME280;69727;53.132;8.230;2023-06-14T12:33:03;101936.97;;;28.53;25.15
80401;BME280;69727;53.132;8.230;2023-06-14T12:35:29;101936.44;;;28.48;24.98
80401;BME280;69727;53.132;8.230;2023-06-14T12:37:54;101931.34;;;28.67;24.58
80401;BME280;69727;53.132;8.230;2023-06-14T12:40:21;101915.13;;;29.00;24.90
80401;BME280;69727;53.132;8.230;2023-06-14T12:42:47;101916.38;;;29.18;23.28
80401;BME280;69727;53.132;8.230;2023-06-14T12:45:12;101921.91;;;28.60;24.41
80401;BME280;69727;53.132;8.230;2023-06-14T12:47:38;101944.19;;;27.81;25.18
80401;BME280;69727;53.132;8.230;2023-06-14T12:50:04;101931.63;;;27.30;26.50
80401;BME280;69727;53.132;8.230;2023-06-14T12:52:30;101925.72;;;27.74;25.95
80401;BME280;69727;53.132;8.230;2023-06-14T12:54:56;101921.00;;;27.89;25.42
80401;BME280;69727;53.132;8.230;2023-06-14T12:57:33;101913.56;;;28.03;25.13
80401;BME280;69727;53.132;8.230;2023-06-14T13:00:02;101930.28;;;28.57;24.73
80401;BME280;69727;53.132;8.230;2023-06-14T13:02:34;101906.47;;;28.94;24.63
80401;BME280;69727;53.132;8.230;2023-06-14T13:05:00;101904.13;;;29.35;22.99
80401;BME280;69727;53.132;8.230;2023-06-14T13:07:29;101897.25;;;29.63;22.80
80401;BME280;69727;53.132;8.230;2023-06-14T13:09:57;101927.22;;;29.86;22.59
80401;BME280;69727;53.132;8.230;2023-06-14T13:12:29;101916.31;;;29.63;22.96
80401;BME280;69727;53.132;8.230;2023-06-14T13:14:55;101906.50;;;29.83;21.85
80401;BME280;69727;53.132;8.230;2023-06-14T13:17:23;101905.09;;;30.00;22.07
80401;BME280;69727;53.132;8.230;2023-06-14T13:20:20;101926.00;;;30.75;21.64
80401;BME280;69727;53.132;8.230;2023-06-14T13:22:45;101931.47;;;30.75;22.57
80401;BME280;69727;53.132;8.230;2023-06-14T13:25:19;101926.78;;;30.23;23.00
80401;BME280;69727;53.132;8.230;2023-06-14T13:28:05;101919.22;;;29.51;24.12
80401;BME280;69727;53.132;8.230;2023-06-14T13:30:31;101910.81;;;28.97;24.89
80401;BME280;69727;53.132;8.230;2023-06-14T13:32:57;101920.34;;;28.80;25.23
80401;BME280;69727;53.132;8.230;2023-06-14T13:35:25;101927.50;;;28.70;25.36
80401;BME280;69727;53.132;8.230;2023-06-14T13:37:51;101928.56;;;28.56;25.17
80401;BME280;69727;53.132;8.230;2023-06-14T13:40:17;101935.19;;;28.29;25.12
80401;BME280;69727;53.132;8.230;2023-06-14T13:42:46;101920.66;;;27.93;26.45
80401;BME280;69727;53.132;8.230;2023-06-14T13:45:12;101917.56;;;27.49;26.18
80401;BME280;69727;53.132;8.230;2023-06-14T13:47:39;101904.78;;;27.13;27.29
80401;BME280;69727;53.132;8.230;2023-06-14T13:50:05;101920.69;;;26.81;27.16
80401;BME280;69727;53.132;8.230;2023-06-14T13:52:31;101919.66;;;26.56;27.83
80401;BME280;69727;53.132;8.230;2023-06-14T13:54:56;101936.59;;;26.59;27.92
80401;BME280;69727;53.132;8.230;2023-06-14T13:57:25;101905.88;;;27.23;27.22
80401;BME280;69727;53.132;8.230;2023-06-14T13:59:51;101924.47;;;27.91;25.69
80401;BME280;69727;53.132;8.230;2023-06-14T14:02:18;101924.09;;;28.55;25.75
80401;BME280;69727;53.132;8.230;2023-06-14T14:04:44;101894.97;;;28.80;25.76
80401;BME280;69727;53.132;8.230;2023-06-14T14:07:25;101894.97;;;28.91;23.95
80401;BME280;69727;53.132;8.230;2023-06-14T14:09:50;101902.28;;;28.32;24.92
80401;BME280;69727;53.132;8.230;2023-06-14T14:12:16;101890.34;;;28.57;25.09
80401;BME280;69727;53.132;8.230;2023-06-14T14:38:24;101861.94;;;27.91;26.41
80401;BME280;69727;53.132;8.230;2023-06-14T14:44:34;101839.25;;;27.67;26.12
80401;BME280;69727;53.132;8.230;2023-06-14T14:47:45;101839.31;;;27.18;26.73
80401;BME280;69727;53.132;8.230;2023-06-14T14:50:11;101911.19;;;27.38;27.57
80401;BME280;69727;53.132;8.230;2023-06-14T14:52:36;101918.03;;;27.18;28.41
80401;BME280;69727;53.132;8.230;2023-06-14T14:55:02;101909.75;;;26.82;28.36
80401;BME280;69727;53.132;8.230;2023-06-14T14:57:27;101907.81;;;26.44;29.38
80401;BME280;69727;53.132;8.230;2023-06-14T14:59:55;101890.78;;;26.16;29.40
80401;BME280;69727;53.132;8.230;2023-06-14T15:02:20;101902.91;;;26.11;29.41
80401;BME280;69727;53.132;8.230;2023-06-14T15:04:46;101908.09;;;25.86;30.86
80401;BME280;69727;53.132;8.230;2023-06-14T15:07:11;101906.13;;;25.76;30.95
80401;BME280;69727;53.132;8.230;2023-06-14T15:09:37;101914.03;;;25.79;30.59
80401;BME280;69727;53.132;8.230;2023-06-14T15:12:17;101907.06;;;25.75;30.67
